createdAt,value
2017-07-21T00:00:14.411Z,0
2017-07-21T00:01:23.619Z,0
2017-07-21T00:02:32.830Z,0
2017-07-21T00:03:41.716Z,0
2017-07-21T00:04:51.567Z,0
2017-07-21T00:06:00.774Z,0
2017-07-21T00:07:10.457Z,0
2017-07-21T00:08:19.335Z,0
2017-07-21T00:09:28.540Z,0
2017-07-21T00:10:38.070Z,0
2017-07-21T00:11:47.601Z,0
2017-07-21T00:12:57.429Z,0
2017-07-21T00:14:06.957Z,0
2017-07-21T00:15:16.165Z,0
2017-07-21T00:16:25.691Z,0
2017-07-21T00:17:35.228Z,0
2017-07-21T00:18:45.130Z,0
2017-07-21T00:19:54.013Z,0
2017-07-21T00:21:04.192Z,0
2017-07-21T00:22:14.374Z,0
2017-07-21T00:23:23.255Z,0
2017-07-21T00:24:32.136Z,0
2017-07-21T00:25:41.672Z,0
2017-07-21T00:26:50.874Z,0
2017-07-21T00:28:00.082Z,0
2017-07-21T00:29:09.615Z,0
2017-07-21T00:30:18.873Z,0
2017-07-21T00:31:28.420Z,0
2017-07-21T00:32:37.302Z,0
2017-07-21T00:33:46.187Z,0
2017-07-21T00:34:55.395Z,0
2017-07-21T00:36:04.952Z,0
2017-07-21T00:37:14.806Z,0
2017-07-21T00:38:24.337Z,0
2017-07-21T00:39:33.552Z,0
2017-07-21T00:40:42.778Z,0
2017-07-21T00:41:52.107Z,0
2017-07-21T00:43:01.962Z,0
2017-07-21T00:44:11.163Z,0
2017-07-21T00:45:20.691Z,0
2017-07-21T00:46:29.926Z,0
2017-07-21T00:47:39.277Z,0
2017-07-21T00:48:49.133Z,0
2017-07-21T00:49:58.983Z,0
2017-07-21T00:51:08.506Z,0
2017-07-21T00:52:18.033Z,0
2017-07-21T00:53:26.969Z,0
2017-07-21T00:54:36.172Z,0
2017-07-21T00:55:46.026Z,0
2017-07-21T00:56:55.229Z,0
2017-07-21T00:58:04.133Z,0
2017-07-21T00:59:13.812Z,0
2017-07-21T01:00:23.339Z,0
2017-07-21T01:01:32.542Z,0
2017-07-21T01:02:41.749Z,0
2017-07-21T01:03:51.279Z,0
2017-07-21T01:05:01.063Z,0
2017-07-21T01:06:10.274Z,0
2017-07-21T01:07:19.805Z,0
2017-07-21T01:08:29.333Z,0
2017-07-21T01:09:38.866Z,0
2017-07-21T01:10:48.546Z,0
2017-07-21T01:11:58.084Z,0
2017-07-21T01:13:07.295Z,0
2017-07-21T01:14:16.828Z,0
2017-07-21T01:15:26.040Z,0
2017-07-21T01:16:35.402Z,0
2017-07-21T01:17:44.930Z,0
2017-07-21T01:18:54.458Z,0
2017-07-21T01:20:03.995Z,0
2017-07-21T01:21:13.850Z,0
2017-07-21T01:22:23.957Z,0
2017-07-21T01:23:33.487Z,0
2017-07-21T01:24:42.370Z,0
2017-07-21T01:25:51.247Z,0
2017-07-21T01:27:00.457Z,0
2017-07-21T01:28:09.986Z,0
2017-07-21T01:29:19.511Z,0
2017-07-21T01:30:29.042Z,0
2017-07-21T01:31:38.567Z,0
2017-07-21T01:32:47.778Z,0
2017-07-21T01:33:57.034Z,0
2017-07-21T01:35:07.217Z,0
2017-07-21T01:36:16.423Z,0
2017-07-21T01:37:25.950Z,0
2017-07-21T01:38:35.156Z,0
2017-07-21T01:39:44.509Z,0
2017-07-21T01:40:53.716Z,0
2017-07-21T01:42:03.246Z,0
2017-07-21T01:43:12.783Z,0
2017-07-21T01:44:21.668Z,0
2017-07-21T01:45:31.029Z,0
2017-07-21T01:46:40.238Z,0
2017-07-21T01:47:49.437Z,0
2017-07-21T01:48:58.669Z,0
2017-07-21T01:50:08.197Z,0
2017-07-21T01:51:18.201Z,0
2017-07-21T01:52:27.405Z,0
2017-07-21T01:53:36.611Z,0
2017-07-21T01:54:45.493Z,0
2017-07-21T01:55:54.696Z,0
2017-07-21T01:57:04.374Z,0
2017-07-21T01:58:14.231Z,0
2017-07-21T01:59:23.436Z,0
2017-07-21T02:00:32.644Z,0
2017-07-21T02:01:42.174Z,0
2017-07-21T02:02:52.178Z,0
2017-07-21T02:04:02.352Z,0
2017-07-21T02:05:11.564Z,0
2017-07-21T02:06:21.103Z,0
2017-07-21T02:07:30.951Z,0
2017-07-21T02:08:40.481Z,0
2017-07-21T02:09:49.683Z,0
2017-07-21T02:10:58.891Z,0
2017-07-21T02:12:08.420Z,0
2017-07-21T02:13:17.625Z,0
2017-07-21T02:14:27.036Z,0
2017-07-21T02:15:35.923Z,0
2017-07-21T02:16:45.456Z,0
2017-07-21T02:17:54.348Z,0
2017-07-21T02:19:03.887Z,0
2017-07-21T02:20:13.187Z,0
2017-07-21T02:21:23.037Z,0
2017-07-21T02:22:31.919Z,0
2017-07-21T02:23:42.094Z,0
2017-07-21T02:24:50.974Z,0
2017-07-21T02:26:00.329Z,0
2017-07-21T02:27:09.533Z,0
2017-07-21T02:28:18.742Z,0
2017-07-21T02:29:27.627Z,0
2017-07-21T02:30:37.837Z,0
2017-07-21T02:31:48.177Z,0
2017-07-21T02:32:58.027Z,0
2017-07-21T02:34:07.884Z,0
2017-07-21T02:35:17.740Z,0
2017-07-21T02:36:26.622Z,0
2017-07-21T02:37:36.625Z,0
2017-07-21T02:38:46.814Z,0
2017-07-21T02:39:56.347Z,0
2017-07-21T02:41:05.558Z,0
2017-07-21T02:42:15.088Z,0
2017-07-21T02:43:24.727Z,0
2017-07-21T02:44:33.934Z,0
2017-07-21T02:45:43.463Z,0
2017-07-21T02:46:52.998Z,0
2017-07-21T02:48:02.524Z,0
2017-07-21T02:49:12.205Z,0
2017-07-21T02:50:21.737Z,0
2017-07-21T02:51:31.267Z,0
2017-07-21T02:52:40.480Z,4
2017-07-21T02:53:49.686Z,4
2017-07-21T02:54:59.462Z,0
2017-07-21T02:56:08.670Z,4
2017-07-21T02:57:18.200Z,4
2017-07-21T02:58:28.058Z,8
2017-07-21T02:59:37.263Z,4
2017-07-21T03:00:46.920Z,8
2017-07-21T03:01:56.781Z,4
2017-07-21T03:03:05.990Z,8
2017-07-21T03:04:15.199Z,8
2017-07-21T03:05:24.732Z,8
2017-07-21T03:06:34.035Z,12
2017-07-21T03:07:43.239Z,12
2017-07-21T03:08:52.763Z,16
2017-07-21T03:10:01.966Z,16
2017-07-21T03:11:11.494Z,16
2017-07-21T03:12:21.491Z,20
2017-07-21T03:13:30.692Z,24
2017-07-21T03:14:40.219Z,28
2017-07-21T03:15:49.429Z,28
2017-07-21T03:16:58.308Z,36
2017-07-21T03:18:07.933Z,36
2017-07-21T03:19:16.827Z,44
2017-07-21T03:20:26.358Z,48
2017-07-21T03:21:36.207Z,56
2017-07-21T03:22:46.383Z,60
2017-07-21T03:23:55.590Z,64
2017-07-21T03:25:05.129Z,72
2017-07-21T03:26:14.657Z,80
2017-07-21T03:27:23.546Z,84
2017-07-21T03:28:32.759Z,92
2017-07-21T03:29:42.019Z,100
2017-07-21T03:30:51.882Z,108
2017-07-21T03:32:02.073Z,116
2017-07-21T03:33:11.273Z,124
2017-07-21T03:34:20.158Z,132
2017-07-21T03:35:29.839Z,144
2017-07-21T03:36:39.367Z,152
2017-07-21T03:37:48.588Z,160
2017-07-21T03:38:58.768Z,168
2017-07-21T03:40:08.620Z,180
2017-07-21T03:41:18.327Z,188
2017-07-21T03:42:28.180Z,192
2017-07-21T03:43:37.061Z,204
2017-07-21T03:44:46.264Z,212
2017-07-21T03:45:55.471Z,220
2017-07-21T03:47:05.051Z,232
2017-07-21T03:48:14.905Z,244
2017-07-21T03:49:24.116Z,252
2017-07-21T03:50:33.970Z,268
2017-07-21T03:51:42.849Z,276
2017-07-21T03:52:52.199Z,288
2017-07-21T03:54:01.402Z,296
2017-07-21T03:55:11.615Z,308
2017-07-21T03:56:21.797Z,320
2017-07-21T03:57:31.324Z,332
2017-07-21T03:58:40.685Z,340
2017-07-21T03:59:50.544Z,352
2017-07-21T04:01:00.071Z,364
2017-07-21T04:02:09.598Z,372
2017-07-21T04:03:19.139Z,384
2017-07-21T04:04:28.177Z,396
2017-07-21T04:05:37.711Z,412
2017-07-21T04:06:46.915Z,424
2017-07-21T04:07:56.444Z,436
2017-07-21T04:09:05.998Z,452
2017-07-21T04:10:14.878Z,468
2017-07-21T04:11:24.090Z,484
2017-07-21T04:12:33.619Z,496
2017-07-21T04:13:42.818Z,508
2017-07-21T04:14:52.670Z,528
2017-07-21T04:16:02.353Z,544
2017-07-21T04:17:12.200Z,560
2017-07-21T04:18:21.730Z,580
2017-07-21T04:19:30.941Z,600
2017-07-21T04:20:39.820Z,620
2017-07-21T04:21:49.026Z,640
2017-07-21T04:22:58.881Z,660
2017-07-21T04:24:08.088Z,676
2017-07-21T04:25:17.614Z,692
2017-07-21T04:26:27.465Z,712
2017-07-21T04:27:36.796Z,732
2017-07-21T04:28:46.647Z,756
2017-07-21T04:29:56.186Z,776
2017-07-21T04:31:05.719Z,804
2017-07-21T04:32:14.944Z,832
2017-07-21T04:33:24.257Z,856
2017-07-21T04:34:33.137Z,860
2017-07-21T04:35:42.664Z,856
2017-07-21T04:36:52.191Z,844
2017-07-21T04:38:02.038Z,824
2017-07-21T04:39:11.397Z,812
2017-07-21T04:40:21.257Z,796
2017-07-21T04:41:30.787Z,780
2017-07-21T04:42:40.321Z,776
2017-07-21T04:43:49.847Z,776
2017-07-21T04:44:59.676Z,772
2017-07-21T04:46:08.563Z,768
2017-07-21T04:47:18.738Z,772
2017-07-21T04:48:27.955Z,768
2017-07-21T04:49:36.833Z,768
2017-07-21T04:50:46.464Z,772
2017-07-21T04:51:55.666Z,764
2017-07-21T04:53:05.191Z,760
2017-07-21T04:54:14.078Z,760
2017-07-21T04:55:23.605Z,760
2017-07-21T04:56:33.118Z,760
2017-07-21T04:57:42.327Z,764
2017-07-21T04:58:51.530Z,760
2017-07-21T05:00:00.738Z,764
2017-07-21T05:01:10.268Z,764
2017-07-21T05:02:19.632Z,764
2017-07-21T05:03:29.479Z,764
2017-07-21T05:04:39.010Z,764
2017-07-21T05:05:48.861Z,760
2017-07-21T05:06:58.068Z,752
2017-07-21T05:08:07.747Z,736
2017-07-21T05:09:17.597Z,768
2017-07-21T05:10:27.451Z,772
2017-07-21T05:11:36.983Z,792
2017-07-21T05:12:46.197Z,800
2017-07-21T05:13:56.106Z,824
2017-07-21T05:15:05.319Z,840
2017-07-21T05:16:14.528Z,860
2017-07-21T05:17:23.734Z,864
2017-07-21T05:18:32.625Z,880
2017-07-21T05:19:42.378Z,884
2017-07-21T05:20:51.954Z,884
2017-07-21T05:22:01.481Z,900
2017-07-21T05:23:10.689Z,912
2017-07-21T05:24:20.244Z,908
2017-07-21T05:25:29.981Z,912
2017-07-21T05:26:39.515Z,948
2017-07-21T05:27:48.403Z,968
2017-07-21T05:28:57.611Z,988
2017-07-21T05:30:06.817Z,1000
2017-07-21T05:31:16.170Z,1004
2017-07-21T05:32:26.021Z,1012
2017-07-21T05:33:35.548Z,1012
2017-07-21T05:34:45.080Z,1020
2017-07-21T05:35:54.609Z,1008
2017-07-21T05:37:04.517Z,996
2017-07-21T05:38:14.051Z,1004
2017-07-21T05:39:23.580Z,1020
2017-07-21T05:40:32.786Z,1040
2017-07-21T05:41:42.336Z,1060
2017-07-21T05:42:51.276Z,1072
2017-07-21T05:44:00.807Z,1076
2017-07-21T05:45:09.698Z,1088
2017-07-21T05:46:19.225Z,1116
2017-07-21T05:47:29.079Z,1152
2017-07-21T05:48:38.910Z,1208
2017-07-21T05:49:48.453Z,1268
2017-07-21T05:50:57.660Z,1336
2017-07-21T05:52:07.193Z,1400
2017-07-21T05:53:16.729Z,1464
2017-07-21T05:54:25.985Z,1492
2017-07-21T05:55:35.197Z,1532
2017-07-21T05:56:44.402Z,1572
2017-07-21T05:57:53.604Z,1600
2017-07-21T05:59:02.815Z,1620
2017-07-21T06:00:12.225Z,1632
2017-07-21T06:01:21.105Z,1624
2017-07-21T06:02:30.309Z,1556
2017-07-21T06:03:39.522Z,1492
2017-07-21T06:04:49.056Z,1424
2017-07-21T06:05:58.259Z,1348
2017-07-21T06:07:07.790Z,1316
2017-07-21T06:08:17.314Z,1336
2017-07-21T06:09:26.527Z,1388
2017-07-21T06:10:35.742Z,1452
2017-07-21T06:11:45.003Z,1508
2017-07-21T06:12:54.553Z,1552
2017-07-21T06:14:04.086Z,1552
2017-07-21T06:15:13.615Z,1556
2017-07-21T06:16:22.498Z,1540
2017-07-21T06:17:31.376Z,1536
2017-07-21T06:18:40.267Z,1556
2017-07-21T06:19:49.146Z,1556
2017-07-21T06:20:59.001Z,1608
2017-07-21T06:22:08.572Z,1640
2017-07-21T06:23:17.928Z,1636
2017-07-21T06:24:27.783Z,1600
2017-07-21T06:25:36.666Z,1512
2017-07-21T06:26:46.196Z,1444
2017-07-21T06:27:55.726Z,1376
2017-07-21T06:29:05.419Z,1256
2017-07-21T06:30:14.628Z,1256
2017-07-21T06:31:24.491Z,1216
2017-07-21T06:32:33.371Z,1208
2017-07-21T06:33:42.586Z,1212
2017-07-21T06:34:51.596Z,1208
2017-07-21T06:36:01.128Z,1220
2017-07-21T06:37:10.658Z,1216
2017-07-21T06:38:20.508Z,1224
2017-07-21T06:39:29.399Z,1208
2017-07-21T06:40:38.281Z,1204
2017-07-21T06:41:47.505Z,1212
2017-07-21T06:42:57.047Z,1292
2017-07-21T06:44:06.595Z,1388
2017-07-21T06:45:16.121Z,1452
2017-07-21T06:46:25.115Z,1476
2017-07-21T06:47:34.001Z,1480
2017-07-21T06:48:43.213Z,1456
2017-07-21T06:49:52.421Z,1436
2017-07-21T06:51:01.637Z,1440
2017-07-21T06:52:11.168Z,1420
2017-07-21T06:53:21.029Z,1436
2017-07-21T06:54:30.569Z,1412
2017-07-21T06:55:40.114Z,1404
2017-07-21T06:56:49.641Z,1424
2017-07-21T06:57:59.221Z,1424
2017-07-21T06:59:08.432Z,1380
2017-07-21T07:00:17.315Z,1324
2017-07-21T07:01:26.525Z,1272
2017-07-21T07:02:35.409Z,1292
2017-07-21T07:03:45.242Z,1328
2017-07-21T07:04:54.124Z,1392
2017-07-21T07:06:03.338Z,1532
2017-07-21T07:07:12.917Z,1732
2017-07-21T07:08:22.126Z,1580
2017-07-21T07:09:31.114Z,1424
2017-07-21T07:10:40.321Z,1404
2017-07-21T07:11:49.532Z,1464
2017-07-21T07:12:58.738Z,1500
2017-07-21T07:14:08.271Z,1468
2017-07-21T07:15:18.096Z,1448
2017-07-21T07:16:27.316Z,1436
2017-07-21T07:17:36.911Z,1452
2017-07-21T07:18:46.443Z,1496
2017-07-21T07:19:55.651Z,1532
2017-07-21T07:21:04.864Z,1580
2017-07-21T07:22:14.424Z,1660
2017-07-21T07:23:23.630Z,1660
2017-07-21T07:24:32.837Z,1636
2017-07-21T07:25:42.051Z,1612
2017-07-21T07:26:51.264Z,1588
2017-07-21T07:28:00.470Z,1572
2017-07-21T07:29:10.003Z,1576
2017-07-21T07:30:19.358Z,1596
2017-07-21T07:31:28.566Z,1648
2017-07-21T07:32:37.781Z,1696
2017-07-21T07:33:47.315Z,1712
2017-07-21T07:34:56.522Z,1728
2017-07-21T07:36:05.783Z,1752
2017-07-21T07:37:15.957Z,1728
2017-07-21T07:38:25.491Z,1684
2017-07-21T07:39:34.702Z,1612
2017-07-21T07:40:43.915Z,1548
2017-07-21T07:41:53.443Z,1480
2017-07-21T07:43:02.978Z,1452
2017-07-21T07:44:11.872Z,1432
2017-07-21T07:45:21.726Z,1392
2017-07-21T07:46:31.180Z,1368
2017-07-21T07:47:40.395Z,1324
2017-07-21T07:48:49.935Z,1284
2017-07-21T07:49:59.139Z,1264
2017-07-21T07:51:08.695Z,1264
2017-07-21T07:52:17.628Z,1260
2017-07-21T07:53:27.170Z,1260
2017-07-21T07:54:37.032Z,1252
2017-07-21T07:55:45.917Z,1236
2017-07-21T07:56:54.856Z,1160
2017-07-21T07:58:04.077Z,1272
2017-07-21T07:59:13.289Z,1288
2017-07-21T08:00:22.176Z,1292
2017-07-21T08:01:31.710Z,1276
2017-07-21T08:02:40.924Z,1264
2017-07-21T08:03:50.513Z,1280
2017-07-21T08:04:59.722Z,1288
2017-07-21T08:06:08.609Z,1280
2017-07-21T08:07:17.814Z,1452
2017-07-21T08:08:27.358Z,1480
2017-07-21T08:09:36.663Z,1384
2017-07-21T08:10:46.112Z,1348
2017-07-21T08:11:55.642Z,1372
2017-07-21T08:13:05.177Z,1528
2017-07-21T08:14:14.707Z,1936
2017-07-21T08:15:24.074Z,2172
2017-07-21T08:16:33.930Z,2272
2017-07-21T08:17:43.467Z,2856
2017-07-21T08:18:52.674Z,2140
2017-07-21T08:20:02.528Z,1968
2017-07-21T08:21:12.159Z,1548
2017-07-21T08:22:21.046Z,1324
2017-07-21T08:23:30.250Z,1336
2017-07-21T08:24:39.155Z,1356
2017-07-21T08:25:49.009Z,1372
2017-07-21T08:26:58.046Z,1376
2017-07-21T08:28:07.583Z,1384
2017-07-21T08:29:17.128Z,1392
2017-07-21T08:30:26.011Z,1396
2017-07-21T08:31:35.573Z,1352
2017-07-21T08:32:45.034Z,1460
2017-07-21T08:33:53.931Z,1460
2017-07-21T08:35:02.816Z,1480
2017-07-21T08:36:12.025Z,1492
2017-07-21T08:37:21.236Z,1516
2017-07-21T08:38:30.713Z,1556
2017-07-21T08:39:39.916Z,1576
2017-07-21T08:40:49.446Z,1744
2017-07-21T08:41:58.654Z,2016
2017-07-21T08:43:08.184Z,2180
2017-07-21T08:44:18.025Z,2256
2017-07-21T08:45:27.557Z,2368
2017-07-21T08:46:37.105Z,2188
2017-07-21T08:47:46.633Z,1832
2017-07-21T08:48:56.164Z,1780
2017-07-21T08:50:05.475Z,1940
2017-07-21T08:51:14.681Z,2188
2017-07-21T08:52:24.224Z,2376
2017-07-21T08:53:34.077Z,2212
2017-07-21T08:54:43.616Z,2044
2017-07-21T08:55:53.209Z,2048
2017-07-21T08:57:02.415Z,2068
2017-07-21T08:58:11.620Z,2056
2017-07-21T08:59:20.845Z,1984
2017-07-21T09:00:30.700Z,1892
2017-07-21T09:01:40.659Z,1928
2017-07-21T09:02:50.283Z,1924
2017-07-21T09:03:59.184Z,1936
2017-07-21T09:05:08.399Z,1952
2017-07-21T09:06:17.604Z,2044
2017-07-21T09:07:27.134Z,2120
2017-07-21T09:08:36.347Z,2272
2017-07-21T09:09:45.634Z,2120
2017-07-21T09:10:54.664Z,2244
2017-07-21T09:12:03.596Z,2536
2017-07-21T09:13:13.426Z,2732
2017-07-21T09:14:23.278Z,2908
2017-07-21T09:15:32.811Z,2852
2017-07-21T09:16:41.696Z,2896
2017-07-21T09:17:50.581Z,3036
2017-07-21T09:19:00.131Z,3172
2017-07-21T09:20:09.340Z,3316
2017-07-21T09:21:19.243Z,3060
2017-07-21T09:22:28.470Z,3036
2017-07-21T09:23:37.731Z,3320
2017-07-21T09:24:46.936Z,4000
2017-07-21T09:25:57.022Z,4460
2017-07-21T09:27:06.570Z,4700
2017-07-21T09:28:15.837Z,5176
2017-07-21T09:29:25.085Z,5340
2017-07-21T09:30:34.420Z,5348
2017-07-21T09:31:43.954Z,4976
2017-07-21T09:32:52.850Z,4756
2017-07-21T09:34:02.701Z,4960
2017-07-21T09:35:12.730Z,4644
2017-07-21T09:36:22.914Z,4576
2017-07-21T09:37:45.192Z,4764
2017-07-21T09:38:54.964Z,5144
2017-07-21T09:40:18.655Z,5476
2017-07-21T09:41:58.147Z,4988
2017-07-21T09:43:09.435Z,4264
2017-07-21T09:44:19.037Z,3964
2017-07-21T09:45:28.987Z,3528
2017-07-21T09:46:38.185Z,3356
2017-07-21T09:47:47.102Z,2872
2017-07-21T09:48:56.072Z,2628
2017-07-21T09:50:05.899Z,2756
2017-07-21T09:51:15.262Z,2912
2017-07-21T09:52:24.361Z,3160
2017-07-21T09:53:33.671Z,3056
2017-07-21T09:54:43.516Z,2504
2017-07-21T09:55:52.778Z,2432
2017-07-21T09:57:02.088Z,2488
2017-07-21T09:58:11.941Z,2544
2017-07-21T09:59:21.459Z,2660
2017-07-21T10:00:31.288Z,2768
2017-07-21T10:01:41.047Z,2728
2017-07-21T10:02:50.682Z,2720
2017-07-21T10:04:29.401Z,2764
2017-07-21T10:05:38.412Z,2688
2017-07-21T10:06:47.755Z,2560
2017-07-21T10:07:57.081Z,2704
2017-07-21T10:09:07.078Z,2708
2017-07-21T10:10:17.399Z,2704
2017-07-21T10:11:27.286Z,2688
2017-07-21T10:12:36.898Z,2660
2017-07-21T10:13:46.083Z,2696
2017-07-21T10:14:55.848Z,2744
2017-07-21T10:16:04.871Z,2748
2017-07-21T10:17:14.916Z,2756
2017-07-21T10:18:24.449Z,2784
2017-07-21T10:19:34.474Z,2804
2017-07-21T10:20:44.027Z,2824
2017-07-21T10:21:53.403Z,2820
2017-07-21T10:23:02.869Z,2824
2017-07-21T10:24:12.189Z,2856
2017-07-21T10:25:22.164Z,2936
2017-07-21T10:26:31.878Z,3100
2017-07-21T10:27:41.600Z,3276
2017-07-21T10:28:51.414Z,3428
2017-07-21T10:30:01.431Z,3528
2017-07-21T10:31:10.850Z,3636
2017-07-21T10:32:20.572Z,3744
2017-07-21T10:33:31.017Z,3872
2017-07-21T10:34:40.723Z,3992
2017-07-21T10:35:50.112Z,4068
2017-07-21T10:36:59.116Z,4132
2017-07-21T10:38:09.257Z,4144
2017-07-21T10:39:19.000Z,4076
2017-07-21T10:40:28.009Z,4288
2017-07-21T10:41:37.670Z,4444
2017-07-21T10:42:47.371Z,4916
2017-07-21T10:43:57.066Z,5432
2017-07-21T10:45:08.206Z,5332
2017-07-21T10:46:20.110Z,5068
2017-07-21T10:47:29.993Z,5048
2017-07-21T10:48:39.912Z,5184
2017-07-21T10:49:49.707Z,5540
2017-07-21T10:50:58.914Z,5640
2017-07-21T10:52:07.801Z,6060
2017-07-21T10:53:17.662Z,6420
2017-07-21T10:54:26.870Z,5988
2017-07-21T10:55:36.777Z,5124
2017-07-21T10:56:46.029Z,3864
2017-07-21T10:57:55.585Z,3456
2017-07-21T10:59:04.796Z,3716
2017-07-21T11:00:14.359Z,3776
2017-07-21T11:01:23.372Z,3996
2017-07-21T11:02:32.581Z,4124
2017-07-21T11:03:42.765Z,3848
2017-07-21T11:04:52.375Z,3712
2017-07-21T11:06:01.914Z,3832
2017-07-21T11:07:11.288Z,3956
2017-07-21T11:08:20.822Z,3816
2017-07-21T11:09:30.447Z,4152
2017-07-21T11:10:40.107Z,4488
2017-07-21T11:11:49.474Z,4340
2017-07-21T11:12:59.229Z,4068
2017-07-21T11:14:08.965Z,4332
2017-07-21T11:15:18.351Z,4432
2017-07-21T11:16:27.302Z,4484
2017-07-21T11:17:37.402Z,4888
2017-07-21T11:18:47.571Z,5276
2017-07-21T11:19:59.010Z,5308
2017-07-21T11:21:08.659Z,5476
2017-07-21T11:22:18.617Z,6440
2017-07-21T11:23:28.681Z,6528
2017-07-21T11:24:38.904Z,6272
2017-07-21T11:25:48.257Z,6632
2017-07-21T11:26:57.627Z,6400
2017-07-21T11:28:06.967Z,6476
2017-07-21T11:29:16.410Z,7028
2017-07-21T11:30:26.266Z,7964
2017-07-21T11:31:35.803Z,9200
2017-07-21T11:32:45.662Z,9696
2017-07-21T11:33:55.195Z,10492
2017-07-21T11:35:04.431Z,10260
2017-07-21T11:36:14.516Z,9040
2017-07-21T11:37:24.175Z,8404
2017-07-21T11:38:34.445Z,8268
2017-07-21T11:39:47.369Z,8104
2017-07-21T11:40:57.629Z,8048
2017-07-21T11:42:07.151Z,6976
2017-07-21T11:43:16.857Z,6620
2017-07-21T11:44:26.712Z,6868
2017-07-21T11:45:36.690Z,7020
2017-07-21T11:46:50.069Z,7408
2017-07-21T11:48:00.014Z,7904
2017-07-21T11:49:09.938Z,8208
2017-07-21T11:50:19.864Z,8968
2017-07-21T11:51:30.336Z,9068
2017-07-21T11:52:46.848Z,7652
2017-07-21T11:53:56.461Z,7332
2017-07-21T11:55:05.840Z,6924
2017-07-21T11:56:15.401Z,6496
2017-07-21T11:57:24.906Z,6544
2017-07-21T11:58:35.341Z,6812
2017-07-21T11:59:44.901Z,6940
2017-07-21T12:00:54.829Z,7252
2017-07-21T12:02:05.121Z,7588
2017-07-21T12:03:14.096Z,7804
2017-07-21T12:04:23.920Z,8612
2017-07-21T12:06:03.305Z,10168
2017-07-21T12:07:17.087Z,11436
2017-07-21T12:08:27.212Z,84192
2017-07-21T12:09:37.097Z,65888
2017-07-21T12:10:46.534Z,19040
2017-07-21T12:11:56.902Z,80320
2017-07-21T12:13:06.713Z,80064
2017-07-21T12:14:16.122Z,89504
2017-07-21T12:15:25.757Z,85984
2017-07-21T12:16:35.934Z,87200
2017-07-21T12:17:45.287Z,90144
2017-07-21T12:18:55.105Z,67232
2017-07-21T12:20:04.833Z,60416
2017-07-21T12:21:14.749Z,56800
2017-07-21T12:22:24.201Z,55040
2017-07-21T12:23:33.200Z,51456
2017-07-21T12:24:42.561Z,41568
2017-07-21T12:25:52.266Z,31168
2017-07-21T12:27:01.943Z,31456
2017-07-21T12:28:11.734Z,6796
2017-07-21T12:29:21.167Z,7516
2017-07-21T12:30:31.434Z,8896
2017-07-21T12:31:40.819Z,13732
2017-07-21T12:32:50.213Z,17632
2017-07-21T12:33:59.859Z,98912
2017-07-21T12:35:09.538Z,16016
2017-07-21T12:36:19.852Z,80768
2017-07-21T12:37:29.554Z,90752
2017-07-21T12:38:38.928Z,83648
2017-07-21T12:39:48.824Z,33024
2017-07-21T12:40:58.164Z,13556
2017-07-21T12:42:07.499Z,77856
2017-07-21T12:43:16.899Z,82624
2017-07-21T12:44:26.227Z,83712
2017-07-21T12:45:35.799Z,77536
2017-07-21T12:46:45.153Z,76320
2017-07-21T12:47:54.528Z,11156
2017-07-21T12:49:04.273Z,9692
2017-07-21T12:50:13.355Z,8308
2017-07-21T12:51:22.980Z,31744
2017-07-21T12:52:32.616Z,7216
2017-07-21T12:53:42.559Z,7612
2017-07-21T12:54:52.220Z,8532
2017-07-21T12:56:01.892Z,10140
2017-07-21T12:57:11.444Z,10744
2017-07-21T12:58:21.778Z,10780
2017-07-21T12:59:32.324Z,9648
2017-07-21T13:00:41.511Z,9296
2017-07-21T13:01:50.837Z,11408
2017-07-21T13:03:00.511Z,85184
2017-07-21T13:04:10.147Z,19904
2017-07-21T13:05:19.569Z,18944
2017-07-21T13:06:29.217Z,19456
2017-07-21T13:07:38.574Z,57376
2017-07-21T13:08:47.719Z,33248
2017-07-21T13:09:57.388Z,14512
2017-07-21T13:11:07.161Z,10096
2017-07-21T13:12:16.793Z,10912
2017-07-21T13:13:26.847Z,14028
2017-07-21T13:14:36.266Z,33696
2017-07-21T13:15:45.762Z,18304
2017-07-21T13:16:55.505Z,15140
2017-07-21T13:18:05.005Z,13828
2017-07-21T13:19:14.558Z,11704
2017-07-21T13:20:24.071Z,12364
2017-07-21T13:21:34.000Z,71392
2017-07-21T13:22:43.237Z,13264
2017-07-21T13:23:52.778Z,12652
2017-07-21T13:25:01.994Z,14356
2017-07-21T13:26:41.725Z,90368
2017-07-21T13:27:52.096Z,94048
2017-07-21T13:29:01.983Z,44224
2017-07-21T13:30:12.421Z,33184
2017-07-21T13:31:21.989Z,77888
2017-07-21T13:32:30.973Z,16032
2017-07-21T13:33:40.923Z,51296
2017-07-21T13:34:51.331Z,87456
2017-07-21T13:36:00.964Z,20032
2017-07-21T13:37:11.738Z,11900
2017-07-21T13:38:21.610Z,12180
2017-07-21T13:39:31.298Z,71520
2017-07-21T13:40:41.371Z,88000
2017-07-21T13:41:51.209Z,85632
2017-07-21T13:43:00.485Z,85472
2017-07-21T13:44:10.487Z,86304
2017-07-21T13:45:19.768Z,87104
2017-07-21T13:46:29.445Z,14576
2017-07-21T13:47:39.135Z,12280
2017-07-21T13:48:48.647Z,14032
2017-07-21T13:49:58.240Z,32352
2017-07-21T13:51:07.720Z,67776
2017-07-21T13:52:16.975Z,85248
2017-07-21T13:53:26.667Z,85920
2017-07-21T13:54:36.062Z,78336
2017-07-21T13:55:45.322Z,16576
2017-07-21T13:56:54.549Z,12448
2017-07-21T13:58:04.420Z,10936
2017-07-21T13:59:14.298Z,10136
2017-07-21T14:00:24.487Z,9872
2017-07-21T14:01:33.517Z,9944
2017-07-21T14:02:43.453Z,8760
2017-07-21T14:03:52.672Z,8108
2017-07-21T14:05:02.217Z,8540
2017-07-21T14:06:11.915Z,9164
2017-07-21T14:07:20.811Z,9496
2017-07-21T14:08:30.027Z,9228
2017-07-21T14:09:39.263Z,8640
2017-07-21T14:10:48.488Z,7628
2017-07-21T14:11:57.811Z,6824
2017-07-21T14:13:07.365Z,6456
2017-07-21T14:14:16.908Z,6300
2017-07-21T14:15:26.125Z,6028
2017-07-21T14:16:35.666Z,5924
2017-07-21T14:17:45.540Z,5908
2017-07-21T14:18:54.683Z,6288
2017-07-21T14:20:04.543Z,7304
2017-07-21T14:21:13.448Z,10300
2017-07-21T14:22:22.665Z,65920
2017-07-21T14:23:32.624Z,44032
2017-07-21T14:24:41.519Z,51872
2017-07-21T14:25:50.531Z,57984
2017-07-21T14:27:00.183Z,34752
2017-07-21T14:28:09.405Z,19072
2017-07-21T14:29:19.337Z,15612
2017-07-21T14:30:28.562Z,17984
2017-07-21T14:31:38.102Z,82720
2017-07-21T14:32:47.322Z,74688
2017-07-21T14:33:56.594Z,16800
2017-07-21T14:35:05.964Z,16544
2017-07-21T14:36:15.192Z,12512
2017-07-21T14:37:24.737Z,12664
2017-07-21T14:38:33.966Z,42304
2017-07-21T14:39:43.209Z,19424
2017-07-21T14:40:52.446Z,73376
2017-07-21T14:42:01.999Z,74528
2017-07-21T14:43:11.319Z,69472
2017-07-21T14:44:20.866Z,61152
2017-07-21T14:45:30.747Z,75872
2017-07-21T14:46:39.989Z,74016
2017-07-21T14:47:49.213Z,71488
2017-07-21T14:48:58.759Z,17856
2017-07-21T14:50:08.326Z,29056
2017-07-21T14:51:17.557Z,17344
2017-07-21T14:52:26.893Z,12000
2017-07-21T14:53:36.771Z,9952
2017-07-21T14:54:46.016Z,9816
2017-07-21T14:55:55.300Z,10180
2017-07-21T14:57:04.694Z,74048
2017-07-21T14:58:13.795Z,11420
2017-07-21T14:59:23.216Z,9532
2017-07-21T15:00:32.585Z,10772
2017-07-21T15:01:42.295Z,14004
2017-07-21T15:02:51.328Z,15644
2017-07-21T15:04:00.816Z,24672
2017-07-21T15:05:10.452Z,28032
2017-07-21T15:06:19.490Z,18368
2017-07-21T15:07:28.557Z,14740
2017-07-21T15:08:38.316Z,56576
2017-07-21T15:09:48.114Z,21888
2017-07-21T15:10:57.399Z,13420
2017-07-21T15:12:06.803Z,58848
2017-07-21T15:13:15.808Z,25760
2017-07-21T15:14:25.217Z,57312
2017-07-21T15:16:04.268Z,49760
2017-07-21T15:17:13.283Z,54592
2017-07-21T15:18:22.304Z,44864
2017-07-21T15:19:31.645Z,35552
2017-07-21T15:20:40.878Z,36320
2017-07-21T15:21:50.826Z,33856
2017-07-21T15:23:00.215Z,27008
2017-07-21T15:24:10.005Z,14336
2017-07-21T15:25:19.400Z,18368
2017-07-21T15:26:28.967Z,20160
2017-07-21T15:27:38.681Z,24992
2017-07-21T15:28:47.973Z,27392
2017-07-21T15:29:56.932Z,7200
2017-07-21T15:31:06.359Z,6672
2017-07-21T15:32:15.728Z,7568
2017-07-21T15:33:25.122Z,10904
2017-07-21T15:34:35.356Z,6312
2017-07-21T15:35:44.969Z,5752
2017-07-21T15:36:53.937Z,5856
2017-07-21T15:38:03.658Z,7244
2017-07-21T15:39:12.809Z,9672
2017-07-21T15:40:22.203Z,6840
2017-07-21T15:41:31.859Z,7752
2017-07-21T15:42:41.203Z,11652
2017-07-21T15:43:50.457Z,11592
2017-07-21T15:45:00.526Z,10976
2017-07-21T15:46:09.926Z,10880